createdAt,value
2022-10-19T00:01:06.123Z,11.06
2022-10-19T00:03:35.585Z,11.00
2022-10-19T00:06:25.863Z,10.87
2022-10-19T00:08:56.159Z,11.08
2022-10-19T00:11:24.045Z,11.20
2022-10-19T00:13:52.366Z,11.43
2022-10-19T00:16:20.514Z,11.55
2022-10-19T00:18:47.862Z,11.47
2022-10-19T00:21:18.430Z,11.32
2022-10-19T00:23:46.210Z,11.30
2022-10-19T00:26:14.200Z,11.34
2022-10-19T00:28:42.346Z,11.30
2022-10-19T00:31:13.127Z,11.55
2022-10-19T00:33:41.179Z,11.49
2022-10-19T00:36:22.554Z,11.49
2022-10-19T00:38:50.636Z,11.44
2022-10-19T00:41:19.335Z,11.17
2022-10-19T00:43:54.090Z,10.97
2022-10-19T00:46:21.888Z,10.85
2022-10-19T00:51:17.451Z,10.76
2022-10-19T00:53:45.148Z,10.93
2022-10-19T00:56:15.325Z,11.38
2022-10-19T00:58:43.643Z,12.68
2022-10-19T01:01:17.766Z,12.77
2022-10-19T01:03:45.855Z,11.79
2022-10-19T01:06:15.140Z,11.83
2022-10-19T01:08:42.508Z,11.64
2022-10-19T01:11:35.520Z,11.64
2022-10-19T01:14:24.054Z,11.35
2022-10-19T01:17:11.484Z,11.28
2022-10-19T01:19:45.495Z,11.15
2022-10-19T01:22:35.146Z,11.80
2022-10-19T01:25:25.015Z,11.27
2022-10-19T01:28:18.503Z,11.09
2022-10-19T01:30:53.347Z,11.17
2022-10-19T01:33:41.483Z,12.06
2022-10-19T01:36:38.018Z,11.72
2022-10-19T01:39:31.143Z,12.00
2022-10-19T01:42:02.367Z,11.73
2022-10-19T01:44:40.131Z,11.53
2022-10-19T01:47:11.341Z,11.46
2022-10-19T01:49:47.273Z,11.56
2022-10-19T01:52:16.300Z,11.53
2022-10-19T01:54:46.276Z,11.44
2022-10-19T01:57:18.467Z,11.51
2022-10-19T01:59:47.574Z,11.51
2022-10-19T02:02:15.260Z,11.46
2022-10-19T02:04:43.217Z,11.59
2022-10-19T02:07:11.606Z,11.83
2022-10-19T02:09:38.977Z,12.09
2022-10-19T02:12:10.321Z,11.48
2022-10-19T02:14:42.627Z,11.99
2022-10-19T02:17:13.885Z,11.79
2022-10-19T02:19:41.625Z,11.62
2022-10-19T02:22:09.743Z,11.47
2022-10-19T02:24:37.432Z,11.74
2022-10-19T02:27:05.919Z,11.69
2022-10-19T02:29:33.965Z,11.70
2022-10-19T02:32:01.957Z,11.97
2022-10-19T02:34:29.660Z,11.74
2022-10-19T02:36:57.202Z,11.63
2022-10-19T02:39:25.324Z,11.46
2022-10-19T02:42:06.228Z,11.45
2022-10-19T02:44:50.813Z,11.41
2022-10-19T02:47:25.658Z,11.63
2022-10-19T02:49:53.868Z,11.63
2022-10-19T02:52:21.261Z,11.53
2022-10-19T02:54:48.702Z,11.65
2022-10-19T02:57:18.828Z,11.84
2022-10-19T02:59:46.406Z,11.75
2022-10-19T03:02:14.873Z,12.02
2022-10-19T03:04:44.252Z,12.02
2022-10-19T03:07:17.948Z,12.32
2022-10-19T03:09:45.608Z,12.30
2022-10-19T03:12:13.816Z,12.20
2022-10-19T03:14:41.438Z,12.33
2022-10-19T03:17:09.370Z,12.76
2022-10-19T03:19:37.198Z,12.58
2022-10-19T03:22:04.970Z,12.88
2022-10-19T03:24:32.625Z,13.67
2022-10-19T03:26:59.994Z,13.86
2022-10-19T03:29:27.410Z,13.05
2022-10-19T03:31:55.563Z,13.08
2022-10-19T03:34:22.932Z,13.07
2022-10-19T03:36:50.331Z,12.77
2022-10-19T03:39:18.055Z,13.69
2022-10-19T03:41:45.491Z,13.62
2022-10-19T03:44:12.880Z,13.81
2022-10-19T03:46:40.849Z,14.24
2022-10-19T03:49:09.414Z,14.19
2022-10-19T03:51:36.824Z,13.91
2022-10-19T03:54:11.652Z,13.74
2022-10-19T03:56:39.135Z,13.50
2022-10-19T03:59:06.999Z,13.10
2022-10-19T04:01:37.048Z,13.12
2022-10-19T04:04:07.193Z,13.87
2022-10-19T04:06:41.614Z,13.82
2022-10-19T04:09:11.814Z,13.85
2022-10-19T04:11:39.267Z,13.45
2022-10-19T04:14:06.737Z,12.69
2022-10-19T04:16:34.445Z,12.46
2022-10-19T04:19:01.861Z,12.35
2022-10-19T04:21:37.157Z,12.52
2022-10-19T04:24:15.573Z,12.29
2022-10-19T04:26:48.180Z,12.33
2022-10-19T04:29:17.009Z,12.44
2022-10-19T04:31:44.942Z,13.01
2022-10-19T04:34:12.336Z,13.05
2022-10-19T04:36:39.969Z,13.38
2022-10-19T04:39:07.947Z,12.54
2022-10-19T04:41:36.912Z,12.48
2022-10-19T04:44:06.666Z,12.06
2022-10-19T04:46:34.036Z,12.23
2022-10-19T04:49:01.673Z,11.85
2022-10-19T04:51:29.417Z,11.71
2022-10-19T04:53:59.587Z,11.65
2022-10-19T04:56:27.753Z,11.41
2022-10-19T04:58:57.525Z,11.50
2022-10-19T05:01:26.239Z,11.67
2022-10-19T05:03:54.813Z,11.60
2022-10-19T05:06:23.177Z,12.24
2022-10-19T05:08:50.817Z,11.59
2022-10-19T05:11:18.776Z,11.60
2022-10-19T05:13:46.512Z,11.50
2022-10-19T05:16:16.632Z,11.38
2022-10-19T05:18:50.903Z,11.38
2022-10-19T05:21:19.301Z,11.57
2022-10-19T05:23:46.693Z,11.35
2022-10-19T05:26:17.564Z,11.35
2022-10-19T05:28:49.747Z,11.64
2022-10-19T05:31:19.140Z,12.05
2022-10-19T05:33:46.970Z,12.09
2022-10-19T05:36:19.947Z,12.11
2022-10-19T05:38:49.540Z,12.10
2022-10-19T05:41:19.726Z,11.80
2022-10-19T05:43:47.753Z,11.69
2022-10-19T05:46:18.264Z,12.40
2022-10-19T05:48:46.577Z,12.14
2022-10-19T05:51:16.624Z,12.73
2022-10-19T05:53:44.473Z,13.05
2022-10-19T05:56:17.603Z,12.42
2022-10-19T05:58:45.632Z,13.05
2022-10-19T06:01:14.214Z,12.93
2022-10-19T06:03:42.079Z,13.09
2022-10-19T06:06:09.579Z,13.19
2022-10-19T06:08:38.311Z,12.88
2022-10-19T06:11:11.884Z,13.28
2022-10-19T06:13:40.191Z,12.96
2022-10-19T06:16:08.981Z,13.33
2022-10-19T06:18:37.587Z,13.08
2022-10-19T06:21:07.346Z,12.88
2022-10-19T06:23:35.278Z,13.12
2022-10-19T06:26:05.977Z,13.43
2022-10-19T06:28:33.741Z,13.70
2022-10-19T06:31:01.630Z,13.45
2022-10-19T06:33:32.238Z,12.93
2022-10-19T06:36:07.326Z,13.04
2022-10-19T06:38:35.060Z,13.57
2022-10-19T06:41:02.844Z,13.35
2022-10-19T06:43:30.559Z,12.95
2022-10-19T06:45:58.576Z,13.29
2022-10-19T06:48:25.963Z,13.55
2022-10-19T06:50:57.748Z,13.52
2022-10-19T06:53:25.838Z,13.71
2022-10-19T06:55:53.309Z,13.86
2022-10-19T06:58:20.735Z,13.61
2022-10-19T07:01:00.775Z,13.90
2022-10-19T07:03:29.455Z,13.91
2022-10-19T07:05:59.846Z,13.86
2022-10-19T07:08:28.685Z,13.85
2022-10-19T07:10:58.854Z,13.93
2022-10-19T07:13:27.739Z,13.98
2022-10-19T07:15:58.955Z,14.03
2022-10-19T07:18:27.208Z,14.19
2022-10-19T07:20:58.754Z,14.25
2022-10-19T07:23:27.712Z,14.16
2022-10-19T07:26:00.758Z,14.04
2022-10-19T07:28:29.597Z,14.18
2022-10-19T07:30:57.266Z,14.28
2022-10-19T07:33:24.790Z,14.34
2022-10-19T07:35:59.295Z,14.53
2022-10-19T07:38:27.381Z,14.57
2022-10-19T07:41:03.400Z,14.68
2022-10-19T07:43:31.149Z,14.83
2022-10-19T07:46:04.369Z,14.97
2022-10-19T07:48:32.348Z,14.49
2022-10-19T07:51:01.514Z,14.34
2022-10-19T07:53:28.967Z,14.89
2022-10-19T07:55:56.599Z,15.05
2022-10-19T07:58:23.916Z,14.77
2022-10-19T08:00:51.364Z,15.01
2022-10-19T08:04:13.809Z,15.17
2022-10-19T08:06:08.704Z,15.50
2022-10-19T08:08:37.204Z,15.16
2022-10-19T08:11:08.255Z,15.91
2022-10-19T08:13:36.014Z,16.00
2022-10-19T08:16:03.965Z,16.56
2022-10-19T08:21:02.138Z,16.01
2022-10-19T08:23:29.461Z,16.88
2022-10-19T08:25:59.942Z,16.00
2022-10-19T08:28:27.610Z,16.41
2022-10-19T08:30:58.862Z,16.05
2022-10-19T08:33:26.619Z,16.54
2022-10-19T08:35:54.256Z,16.00
2022-10-19T08:38:21.647Z,16.69
2022-10-19T08:40:48.954Z,16.46
2022-10-19T08:43:37.021Z,16.79
2022-10-19T08:46:38.215Z,16.42
2022-10-19T08:49:08.742Z,17.12
2022-10-19T08:51:38.158Z,16.69
2022-10-19T08:54:12.216Z,17.92
2022-10-19T08:57:05.176Z,18.27
2022-10-19T08:59:56.684Z,18.04
2022-10-19T09:02:54.609Z,18.18
2022-10-19T09:05:34.618Z,18.47
2022-10-19T09:08:02.530Z,18.39
2022-10-19T09:10:36.054Z,18.92
2022-10-19T09:13:21.405Z,18.64
2022-10-19T09:15:50.888Z,19.31
2022-10-19T09:18:23.415Z,19.23
2022-10-19T09:20:56.217Z,19.19
2022-10-19T09:23:30.255Z,19.52
2022-10-19T09:25:58.209Z,20.10
2022-10-19T09:28:47.402Z,20.19
2022-10-19T09:31:30.354Z,20.64
2022-10-19T09:34:14.285Z,20.46
2022-10-19T09:36:50.368Z,20.77
2022-10-19T09:39:18.793Z,20.99
2022-10-19T09:41:50.254Z,21.62
2022-10-19T09:44:18.180Z,21.51
2022-10-19T09:46:52.499Z,20.57
2022-10-19T09:49:42.413Z,21.56
2022-10-19T09:52:36.007Z,21.30
2022-10-19T09:55:07.757Z,19.80
2022-10-19T09:57:42.970Z,20.55
2022-10-19T10:00:21.055Z,20.58
2022-10-19T10:02:53.790Z,20.95
2022-10-19T10:05:31.499Z,20.74
2022-10-19T10:07:59.299Z,20.17
2022-10-19T10:10:53.959Z,19.90
2022-10-19T10:13:24.965Z,19.78
2022-10-19T10:16:01.717Z,19.88
2022-10-19T10:18:30.116Z,19.84
2022-10-19T10:20:59.128Z,19.92
2022-10-19T10:23:29.589Z,20.26
2022-10-19T10:25:58.991Z,20.16
2022-10-19T10:28:28.936Z,19.99
2022-10-19T10:31:05.454Z,20.22
2022-10-19T10:33:44.132Z,20.15
2022-10-19T10:36:12.683Z,20.28
2022-10-19T10:38:47.377Z,20.57
2022-10-19T10:41:17.743Z,20.82
2022-10-19T10:43:54.476Z,20.88
2022-10-19T10:46:25.203Z,20.62
2022-10-19T10:48:57.280Z,20.50
2022-10-19T10:51:36.799Z,20.48
2022-10-19T10:54:31.323Z,20.25
2022-10-19T10:57:16.695Z,20.54
2022-10-19T10:59:53.498Z,20.58
2022-10-19T11:02:41.461Z,20.51
2022-10-19T11:05:15.627Z,20.16
2022-10-19T11:07:45.906Z,20.52
2022-10-19T11:10:22.117Z,20.10
2022-10-19T11:12:56.335Z,20.07
2022-10-19T11:15:53.263Z,20.06
2022-10-19T11:18:26.775Z,20.12
2022-10-19T11:21:32.089Z,20.47
2022-10-19T11:24:36.022Z,20.75
2022-10-19T11:27:27.769Z,20.67
2022-10-19T11:30:10.315Z,20.38
2022-10-19T11:33:02.072Z,19.84
2022-10-19T11:35:53.208Z,19.89
2022-10-19T11:38:29.563Z,20.08
2022-10-19T11:41:19.138Z,20.07
2022-10-19T11:44:10.031Z,20.29
2022-10-19T11:46:52.786Z,19.94
2022-10-19T11:49:26.201Z,19.75
2022-10-19T11:52:10.446Z,19.63
2022-10-19T11:54:49.562Z,19.52
2022-10-19T11:57:42.212Z,19.34
2022-10-19T12:00:15.722Z,19.33
2022-10-19T12:03:19.479Z,19.44
2022-10-19T12:06:04.550Z,19.58
2022-10-19T12:09:12.891Z,19.72
2022-10-19T12:11:56.244Z,19.83
2022-10-19T12:14:26.824Z,19.35
2022-10-19T12:16:57.945Z,19.39
2022-10-19T12:19:29.280Z,19.49
2022-10-19T12:22:01.969Z,18.99
2022-10-19T12:24:30.787Z,18.84
2022-10-19T12:26:58.916Z,18.57
2022-10-19T12:29:28.953Z,18.48
2022-10-19T12:31:57.532Z,18.38
2022-10-19T12:34:34.070Z,18.51
2022-10-19T12:37:36.149Z,18.44
2022-10-19T12:40:41.793Z,18.67
2022-10-19T12:43:14.182Z,18.94
2022-10-19T12:46:11.094Z,19.10
2022-10-19T12:48:39.341Z,18.74
2022-10-19T12:51:15.049Z,18.56
2022-10-19T12:53:45.457Z,18.87
2022-10-19T12:56:17.903Z,18.95
2022-10-19T12:58:48.142Z,18.74
2022-10-19T13:01:26.387Z,18.91
2022-10-19T13:04:08.111Z,19.03
2022-10-19T13:06:37.326Z,19.16
2022-10-19T13:09:07.090Z,18.86
2022-10-19T13:11:36.452Z,18.82
2022-10-19T13:14:07.570Z,18.77
2022-10-19T13:16:40.176Z,19.00
2022-10-19T13:19:13.601Z,18.80
2022-10-19T13:21:59.582Z,18.85
2022-10-19T13:24:26.903Z,18.64
2022-10-19T13:27:03.551Z,18.58
2022-10-19T13:29:37.040Z,18.75
2022-10-19T13:32:37.934Z,19.21
2022-10-19T13:35:37.950Z,18.76
2022-10-19T13:38:22.538Z,18.59
2022-10-19T13:40:49.750Z,18.93
2022-10-19T13:43:30.065Z,19.22
2022-10-19T13:46:03.357Z,19.30
2022-10-19T13:48:43.056Z,19.14
2022-10-19T13:51:32.767Z,19.10
2022-10-19T13:54:12.726Z,19.14
2022-10-19T13:57:14.858Z,18.93
2022-10-19T14:00:07.147Z,18.61
2022-10-19T14:03:06.615Z,18.53
2022-10-19T14:05:58.788Z,18.71
2022-10-19T14:08:47.923Z,18.43
2022-10-19T14:11:19.062Z,18.19
2022-10-19T14:13:47.379Z,18.37
2022-10-19T14:16:20.922Z,18.23
2022-10-19T14:18:55.738Z,17.91
2022-10-19T14:21:33.931Z,18.12
2022-10-19T14:24:01.591Z,17.88
2022-10-19T14:26:30.985Z,17.99
2022-10-19T14:28:59.817Z,18.01
2022-10-19T14:31:35.371Z,18.10
2022-10-19T14:34:04.504Z,18.34
2022-10-19T14:36:36.647Z,17.61
2022-10-19T14:39:04.916Z,17.47
2022-10-19T14:41:38.437Z,17.27
2022-10-19T14:44:28.841Z,17.41
2022-10-19T14:46:56.570Z,17.52
2022-10-19T14:49:24.070Z,17.48
2022-10-19T14:51:54.850Z,17.59
2022-10-19T14:54:29.101Z,17.71
2022-10-19T14:57:00.620Z,17.51
2022-10-19T14:59:37.662Z,17.60
2022-10-19T15:02:36.856Z,17.39
2022-10-19T15:05:06.936Z,17.62
2022-10-19T15:07:39.882Z,17.74
2022-10-19T15:10:25.700Z,17.48
2022-10-19T15:13:00.636Z,17.15
2022-10-19T15:15:31.043Z,17.10
2022-10-19T15:18:01.440Z,16.90
2022-10-19T15:20:43.967Z,17.28
2022-10-19T15:23:42.699Z,17.41
2022-10-19T15:26:27.222Z,17.29
2022-10-19T15:28:56.467Z,17.13
2022-10-19T15:31:29.243Z,16.93
2022-10-19T15:34:01.342Z,16.90
2022-10-19T15:36:30.708Z,16.63
2022-10-19T15:39:11.268Z,16.48
2022-10-19T15:41:46.462Z,16.48
2022-10-19T15:44:33.693Z,16.50
2022-10-19T15:47:16.499Z,16.36
2022-10-19T15:49:44.371Z,16.25
2022-10-19T15:52:23.354Z,16.21
2022-10-19T15:54:52.626Z,16.27
2022-10-19T15:57:32.779Z,15.97
2022-10-19T16:00:08.312Z,15.94
2022-10-19T16:02:35.954Z,16.06
2022-10-19T16:05:03.329Z,16.15
2022-10-19T16:07:32.289Z,16.30
2022-10-19T16:10:00.336Z,16.35
2022-10-19T16:12:28.569Z,15.77
2022-10-19T16:14:56.341Z,15.46
2022-10-19T16:17:24.168Z,15.42
2022-10-19T16:19:51.624Z,15.47
2022-10-19T16:22:19.286Z,15.36
2022-10-19T16:24:47.234Z,15.33
2022-10-19T16:27:16.481Z,15.28
2022-10-19T16:29:44.975Z,15.10
2022-10-19T16:32:13.068Z,15.07
2022-10-19T16:34:41.385Z,15.17
2022-10-19T16:37:08.732Z,15.08
2022-10-19T16:39:36.616Z,15.11
2022-10-19T16:42:04.370Z,14.90
2022-10-19T16:44:31.863Z,14.99
2022-10-19T16:46:59.936Z,15.21
2022-10-19T16:49:27.877Z,15.02
2022-10-19T16:51:57.406Z,14.85
2022-10-19T16:54:32.742Z,15.17
2022-10-19T16:57:00.094Z,15.21
2022-10-19T16:59:28.013Z,15.13
2022-10-19T17:01:55.494Z,14.71
2022-10-19T17:04:23.319Z,15.06
2022-10-19T17:06:51.043Z,14.95
2022-10-19T17:12:07.377Z,15.07
2022-10-19T17:14:35.917Z,14.86
2022-10-19T17:17:03.552Z,14.34
2022-10-19T17:19:32.019Z,14.70
2022-10-19T17:22:00.177Z,14.80
2022-10-19T17:24:27.845Z,14.80
2022-10-19T17:26:55.811Z,14.55
2022-10-19T17:29:23.806Z,14.26
2022-10-19T17:31:51.586Z,14.26
2022-10-19T17:34:19.670Z,14.07
2022-10-19T17:36:47.747Z,14.08
2022-10-19T17:39:19.055Z,14.03
2022-10-19T17:41:48.768Z,13.90
2022-10-19T17:44:17.913Z,13.98
2022-10-19T17:46:46.048Z,13.82
2022-10-19T17:49:14.538Z,13.81
2022-10-19T17:51:42.951Z,13.83
2022-10-19T17:54:16.198Z,13.88
2022-10-19T17:56:46.958Z,13.95
2022-10-19T17:59:15.913Z,13.98
2022-10-19T18:01:43.828Z,14.25
2022-10-19T18:04:11.478Z,14.38
2022-10-19T18:06:39.250Z,14.15
2022-10-19T18:09:08.618Z,14.31
2022-10-19T18:11:42.233Z,14.36
2022-10-19T18:14:14.534Z,14.06
2022-10-19T18:16:45.783Z,13.95
2022-10-19T18:19:15.222Z,14.35
2022-10-19T18:21:45.522Z,14.40
2022-10-19T18:24:22.500Z,14.03
2022-10-19T18:26:51.448Z,13.92
2022-10-19T18:29:21.717Z,13.56
2022-10-19T18:31:51.968Z,13.71
2022-10-19T18:34:24.604Z,13.64
2022-10-19T18:36:52.825Z,13.76
2022-10-19T18:39:21.340Z,13.66
2022-10-19T18:41:54.903Z,13.56
2022-10-19T18:44:26.990Z,13.77
2022-10-19T18:46:56.841Z,13.68
2022-10-19T18:49:25.550Z,13.47
2022-10-19T18:51:55.700Z,13.46
2022-10-19T18:54:29.860Z,13.86
2022-10-19T18:56:58.038Z,14.19
2022-10-19T19:01:55.682Z,13.54
2022-10-19T19:04:23.143Z,13.88
2022-10-19T19:06:51.259Z,13.86
2022-10-19T19:09:20.018Z,14.11
2022-10-19T19:11:48.133Z,13.99
2022-10-19T19:14:18.635Z,14.63
2022-10-19T19:16:51.501Z,14.83
2022-10-19T19:19:20.264Z,14.92
2022-10-19T19:21:50.248Z,14.55
2022-10-19T19:24:20.856Z,14.26
2022-10-19T19:26:52.127Z,13.91
2022-10-19T19:29:21.033Z,13.43
2022-10-19T19:31:49.248Z,13.40
2022-10-19T19:34:18.123Z,12.92
2022-10-19T19:36:49.037Z,13.48
2022-10-19T19:39:19.730Z,13.48
2022-10-19T19:41:48.999Z,13.29
2022-10-19T19:44:17.489Z,13.21
2022-10-19T19:46:45.396Z,13.01
2022-10-19T19:49:13.288Z,12.77
2022-10-19T19:51:41.346Z,12.44
2022-10-19T19:54:09.164Z,12.43
2022-10-19T19:56:37.437Z,12.50
2022-10-19T19:59:05.456Z,12.44
2022-10-19T20:01:33.729Z,12.19
2022-10-19T20:06:36.783Z,12.56
2022-10-19T20:09:06.076Z,12.39
2022-10-19T20:11:36.081Z,12.91
2022-10-19T20:14:06.635Z,12.63
2022-10-19T20:16:34.733Z,12.61
2022-10-19T20:19:07.646Z,12.69
2022-10-19T20:21:36.379Z,12.77
2022-10-19T20:24:04.029Z,12.89
2022-10-19T20:26:31.911Z,12.42
2022-10-19T20:29:04.430Z,12.02
2022-10-19T20:31:33.730Z,11.79
2022-10-19T20:34:01.905Z,11.63
2022-10-19T20:36:29.455Z,11.67
2022-10-19T20:38:58.139Z,11.52
2022-10-19T20:41:27.933Z,11.33
2022-10-19T20:43:56.005Z,11.27
2022-10-19T20:46:26.908Z,11.23
2022-10-19T20:49:00.564Z,11.23
2022-10-19T20:51:31.954Z,11.46
2022-10-19T20:54:02.195Z,11.33
2022-10-19T20:56:33.302Z,11.31
2022-10-19T21:01:37.425Z,11.31
2022-10-19T21:04:09.468Z,11.31
2022-10-19T21:06:42.535Z,11.11
2022-10-19T21:09:11.155Z,10.33
2022-10-19T21:11:40.316Z,9.47
2022-10-19T21:14:13.236Z,9.48
2022-10-19T21:16:41.517Z,9.63
2022-10-19T21:19:13.114Z,9.58
2022-10-19T21:21:43.475Z,9.39
2022-10-19T21:24:14.201Z,9.36
2022-10-19T21:26:42.277Z,9.43
2022-10-19T21:29:11.020Z,9.40
2022-10-19T21:31:42.146Z,9.60
2022-10-19T21:34:14.126Z,9.75
2022-10-19T21:36:41.625Z,9.43
2022-10-19T21:39:09.030Z,9.43
2022-10-19T21:41:38.829Z,9.52
2022-10-19T21:44:06.207Z,9.27
2022-10-19T21:46:33.576Z,9.49
2022-10-19T21:49:01.192Z,9.40
2022-10-19T21:51:39.934Z,9.40
2022-10-19T21:56:44.143Z,9.16
2022-10-19T21:59:12.707Z,9.11
2022-10-19T22:01:41.437Z,9.16
2022-10-19T22:04:12.786Z,9.30
2022-10-19T22:06:40.667Z,9.15
2022-10-19T22:09:09.867Z,9.07
2022-10-19T22:11:37.458Z,8.90
2022-10-19T22:14:05.030Z,9.36
2022-10-19T22:16:33.655Z,9.10
2022-10-19T22:19:01.368Z,10.27
2022-10-19T22:21:30.384Z,9.50
2022-10-19T22:24:03.372Z,8.83
2022-10-19T22:26:33.525Z,9.01
2022-10-19T22:29:02.630Z,8.90
2022-10-19T22:31:31.088Z,8.79
2022-10-19T22:34:00.549Z,8.93
2022-10-19T22:36:28.181Z,9.00
2022-10-19T22:38:55.660Z,9.09
2022-10-19T22:42:19.854Z,8.93
2022-10-19T22:44:50.224Z,8.75
2022-10-19T22:47:17.936Z,8.77
2022-10-19T22:49:45.425Z,8.81
2022-10-19T22:52:12.920Z,8.58
2022-10-19T22:54:40.599Z,8.62
2022-10-19T22:57:08.064Z,8.62
2022-10-19T22:59:35.546Z,8.35
2022-10-19T23:02:03.645Z,8.12
2022-10-19T23:04:31.270Z,8.14
2022-10-19T23:06:58.656Z,8.14
2022-10-19T23:09:26.410Z,8.16
2022-10-19T23:11:53.794Z,7.97
2022-10-19T23:14:21.233Z,7.95
2022-10-19T23:16:49.008Z,7.83
2022-10-19T23:19:16.464Z,8.07
2022-10-19T23:21:43.845Z,7.80
2022-10-19T23:24:11.507Z,8.34
2022-10-19T23:26:38.885Z,8.26
2022-10-19T23:29:06.271Z,8.72
2022-10-19T23:31:34.064Z,9.68
2022-10-19T23:34:01.539Z,9.70
2022-10-19T23:36:29.303Z,8.93
2022-10-19T23:38:58.036Z,8.40
2022-10-19T23:41:25.404Z,8.55
2022-10-19T23:43:52.796Z,8.27
2022-10-19T23:46:20.404Z,8.12
2022-10-19T23:48:47.921Z,7.90
2022-10-19T23:51:17.825Z,7.82
2022-10-19T23:53:47.449Z,7.80
2022-10-19T23:56:18.555Z,7.92
2022-10-19T23:58:46.574Z,8.08
